Flight Track Log - Related Links

Times and Time Zones

All times are in EDT time to prevent confusion due to time zone crossing. See the JZA8279 flight status page for this flight to view local times or setup timezone preferences in your user account.

Time Position Orientation Groundspeed Altitude Reporting Facility
EDT Latitude Longitude Course Direction KTS MPH feet Rate Location/Type
Sun 01:28:16 PM 54.2667 -130.4667 136° Southeast 250 288 1,000  Level Vancouver Center
Sun 01:29:16 PM 54.2167 -130.4500 169° South 140 161 2,600 1,700 Climbing Vancouver Center
Sun 01:30:16 PM 54.1833 -130.3833 130° Southeast 160 184 4,400 1,900 Climbing Vancouver Center
Sun 01:31:16 PM 54.1500 -130.3500 150° Southeast 160 184 6,400 1,950 Climbing Vancouver Center
Sun 01:32:16 PM 54.1333 -130.3000 120° Southeast 160 184 8,300 1,800 Climbing Vancouver Center
Sun 01:33:00 PM 53.9624 -129.9063 136° Southeast  Level FlightAware Approximate
Sun 01:33:16 PM 54.1000 -130.2333 130° Southeast 160 184 10,000  Level Vancouver Center
Sun 01:34:16 PM 54.0667 -130.1667 130° Southeast 170 196 11,300 1,250 Climbing Vancouver Center
Sun 01:35:16 PM 54.0167 -130.1000 142° Southeast 190 219 12,500 1,150 Climbing Vancouver Center
Sun 01:36:16 PM 53.9833 -130.0500 139° Southeast 180 207 13,600 1,050 Climbing Vancouver Center
Sun 01:37:16 PM 53.9500 -129.9833 130° Southeast 190 219 14,600 950 Climbing Vancouver Center
Sun 01:38:16 PM 53.9167 -129.9167 130° Southeast 210 242 15,500 950 Climbing Vancouver Center
Sun 01:39:16 PM 53.8667 -129.8333 135° Southeast 210 242 16,500 950 Climbing Vancouver Center
Sun 01:40:16 PM 53.8167 -129.7667 142° Southeast 210 242 17,400 900 Climbing Vancouver Center
Sun 01:41:16 PM 53.7833 -129.7000 130° Southeast 220 253 18,300 850 Climbing Vancouver Center
Sun 01:42:16 PM 53.7333 -129.6167 135° Southeast 230 265 19,100 900 Climbing Vancouver Center
Sun 01:43:16 PM 53.7000 -129.5500 130° Southeast 220 253 20,100 900 Climbing Vancouver Center
Sun 01:44:16 PM 53.6500 -129.4667 135° Southeast 220 253 20,900 800 Climbing Vancouver Center
Sun 01:45:16 PM 53.6000 -129.4000 142° Southeast 220 253 21,700 750 Climbing Vancouver Center
Sun 01:46:16 PM 53.5667 -129.3333 130° Southeast 220 253 22,400 800 Climbing Vancouver Center
Sun 01:47:16 PM 53.5167 -129.2500 135° Southeast 220 253 23,300 750 Climbing Vancouver Center
Sun 01:48:16 PM 53.4833 -129.1833 130° Southeast 220 253 23,900 550 Climbing Vancouver Center
Sun 01:49:16 PM 53.4333 -129.1000 135° Southeast 230 265 24,400 500 Climbing Vancouver Center
Sun 01:50:16 PM 53.3833 -129.0333 141° Southeast 230 265 24,900 300 Climbing Vancouver Center
Sun 01:51:16 PM 53.3333 -128.9500 135° Southeast 240 276 25,000 50 Climbing Vancouver Center
Sun 01:52:16 PM 53.2833 -128.8500 130° Southeast 260 299 25,000  Level Vancouver Center
Sun 01:53:16 PM 53.2333 -128.7667 135° Southeast 270 311 25,000  Level Vancouver Center
Sun 01:54:16 PM 53.1833 -128.6667 130° Southeast 290 334 25,000  Level Vancouver Center
Sun 01:55:16 PM 53.1167 -128.5833 143° Southeast 300 345 25,000  Level Vancouver Center
Sun 01:56:16 PM 53.0500 -128.5000 143° Southeast 300 345 25,000  Level Vancouver Center
Sun 01:57:16 PM 52.9833 -128.4000 138° Southeast 300 345 25,000  Level Vancouver Center
Sun 01:58:16 PM 52.9333 -128.2833 125° Southeast 310 357 25,000  Level Vancouver Center
Sun 01:59:16 PM 52.8833 -128.2000 135° Southeast 300 345 25,000  Level Vancouver Center
Sun 02:00:16 PM 52.8167 -128.1000 138° Southeast 300 345 25,000  Level Vancouver Center
Sun 02:01:16 PM 52.7500 -127.9833 133° Southeast 300 345 25,000  Level Vancouver Center
Sun 02:02:16 PM 52.6833 -127.9000 143° Southeast 300 345 25,000  Level Vancouver Center
Sun 02:03:16 PM 52.6333 -127.8167 135° Southeast 300 345 25,000  Level Vancouver Center
Sun 02:04:16 PM 52.5833 -127.7333 135° Southeast 300 345 25,000  Level Vancouver Center
Sun 02:05:16 PM 52.5167 -127.6167 133° Southeast 300 345 25,000  Level Vancouver Center
Sun 02:06:16 PM 52.4500 -127.5167 138° Southeast 300 345 25,000  Level Vancouver Center
Sun 02:07:16 PM 52.3833 -127.4333 143° Southeast 300 345 25,000  Level Vancouver Center
Sun 02:08:16 PM 52.3333 -127.3167 125° Southeast 300 345 25,000  Level Vancouver Center
Sun 02:09:16 PM 52.2667 -127.2333 143° Southeast 310 357 25,000  Level Vancouver Center
Sun 02:10:16 PM 52.2000 -127.1500 143° Southeast 300 345 25,000  Level Vancouver Center
Sun 02:11:16 PM 52.1500 -127.0667 134° Southeast 310 357 25,000  Level Vancouver Center
Sun 02:12:16 PM 52.0833 -126.9500 133° Southeast 310 357 25,000  Level Vancouver Center
Sun 02:13:16 PM 52.0167 -126.8667 142° Southeast 310 357 25,000  Level Vancouver Center
Sun 02:14:16 PM 51.9500 -126.7833 142° Southeast 300 345 25,000  Level Vancouver Center
Sun 02:15:16 PM 51.9000 -126.6667 125° Southeast 310 357 25,000  Level Vancouver Center
Sun 02:16:16 PM 51.8333 -126.5833 142° Southeast 310 357 25,000  Level Vancouver Center
Sun 02:17:16 PM 51.7667 -126.4667 133° Southeast 310 357 25,000  Level Vancouver Center
Sun 02:18:16 PM 51.7000 -126.3833 142° Southeast 310 357 25,000  Level Vancouver Center
Sun 02:19:16 PM 51.6333 -126.3000 142° Southeast 310 357 25,000  Level Vancouver Center
Sun 02:20:16 PM 51.5667 -126.1833 133° Southeast 310 357 25,000  Level Vancouver Center
Sun 02:21:16 PM 51.5000 -126.1000 142° Southeast 320 368 25,000  Level Vancouver Center
Sun 02:22:16 PM 51.4333 -126.0000 137° Southeast 320 368 25,000  Level Vancouver Center
Sun 02:23:16 PM 51.3667 -125.9167 142° Southeast 310 357 25,000  Level Vancouver Center
Sun 02:24:16 PM 51.3000 -125.8333 142° Southeast 320 368 25,000  Level Vancouver Center
Sun 02:25:16 PM 51.2500 -125.7167 124° Southeast 320 368 25,000  Level Vancouver Center
Sun 02:26:16 PM 51.1833 -125.6333 142° Southeast 310 357 25,000  Level Vancouver Center
Sun 02:27:16 PM 51.1167 -125.5333 137° Southeast 320 368 25,000  Level Vancouver Center
Sun 02:28:16 PM 51.0500 -125.4500 142° Southeast 320 368 25,000  Level Vancouver Center
Sun 02:29:16 PM 50.9833 -125.3333 132° Southeast 320 368 25,000  Level Vancouver Center
Sun 02:30:16 PM 50.9167 -125.2500 142° Southeast 320 368 25,000  Level Vancouver Center
Sun 02:31:16 PM 50.8500 -125.1500 137° Southeast 320 368 25,000  Level Vancouver Center
Sun 02:32:16 PM 50.7833 -125.0667 142° Southeast 320 368 25,000  Level Vancouver Center
Sun 02:33:16 PM 50.7167 -124.9833 142° Southeast 320 368 25,000  Level Vancouver Center
Sun 02:34:16 PM 50.6500 -124.8833 136° Southeast 320 368 25,000  Level Vancouver Center
Sun 02:35:16 PM 50.5833 -124.8000 142° Southeast 320 368 25,000 -250 Level Vancouver Center
Sun 02:36:16 PM 50.5000 -124.6833 138° Southeast 330 380 24,500 -900 Descending Vancouver Center
Sun 02:37:16 PM 50.4333 -124.5833 136° Southeast 350 403 23,200 -1,300 Descending Vancouver Center
Sun 02:38:16 PM 50.3667 -124.4833 136° Southeast 360 414 21,900 -1,300 Descending Vancouver Center
Sun 02:39:16 PM 50.2833 -124.4000 147° Southeast 350 403 20,600 -1,250 Descending Vancouver Center
Sun 02:40:16 PM 50.2167 -124.3000 136° Southeast 330 380 19,400 -1,200 Descending Vancouver Center
Sun 02:41:16 PM 50.1500 -124.1833 132° Southeast 320 368 18,200 -1,000 Descending Vancouver Center
Sun 02:42:16 PM 50.1000 -124.0833 128° Southeast 330 380 17,400 -1,200 Descending Vancouver Center
Sun 02:43:16 PM 50.0500 -123.9500 120° Southeast 340 391 15,800 -1,400 Descending Vancouver Center
Sun 02:44:16 PM 49.9667 -123.8833 153° Southeast 320 368 14,600 -1,100 Descending Vancouver Center
Sun 02:45:16 PM 49.9000 -123.8167 147° Southeast 310 357 13,600 -1,100 Descending Vancouver Center
Sun 02:46:16 PM 49.8167 -123.7500 153° Southeast 300 345 12,400 -1,100 Descending Vancouver Center
Sun 02:47:16 PM 49.7500 -123.7000 154° Southeast 290 334 11,400 -1,000 Descending Vancouver Center
Sun 02:48:16 PM 49.6833 -123.6500 154° Southeast 280 322 10,400 -700 Descending Vancouver Center
Sun 02:49:16 PM 49.6167 -123.6000 154° Southeast 270 311 10,000 -200 Descending Vancouver Center
Sun 02:50:16 PM 49.5500 -123.5500 154° Southeast 260 299 10,000  Level Vancouver Center
Sun 02:51:16 PM 49.4833 -123.4833 147° Southeast 260 299 10,000  Level Vancouver Center
Sun 02:52:16 PM 49.4333 -123.4333 147° Southeast 260 299 10,000  Level Vancouver Center
Sun 02:53:16 PM 49.3667 -123.3833 154° Southeast 260 299 10,000 -500 Level Vancouver Center
Sun 02:54:16 PM 49.3000 -123.3333 154° Southeast 260 299 9,000 -1,600 Descending Vancouver Center
Sun 02:55:16 PM 49.2500 -123.2333 127° Southeast 270 311 6,800 -1,600 Descending Vancouver Center
Sun 02:56:16 PM 49.2500 -123.1667 90° East 240 276 5,800 -1,300 Descending Vancouver Center
Sun 02:57:16 PM 49.2333 -123.0500 102° East 220 253 4,200 -950 Descending Vancouver Center
Sun 02:58:16 PM 49.2333 -122.9500 90° East 220 253 3,900 -700 Descending Vancouver Center
Sun 02:59:16 PM 49.2000 -122.9000 136° Southeast 210 242 2,800 -850 Descending Vancouver Center
Sun 03:00:16 PM 49.1667 -122.9500 224° Southwest 190 219 2,200 -600 Descending Vancouver Center
Sun 03:01:16 PM 49.1667 -123.0333 270° West 170 196 1,600 -700 Descending Vancouver Center
Sun 03:02:16 PM 49.1667 -123.1167 270° West 150 173 800 -750 Descending Vancouver Center
Sun 03:03:16 PM 49.1833 -123.1667 297° West 120 138 100 -700 Descending Vancouver Center

Login

Don't have an account? Register now (free) for customized features, flight alerts, and more!